Neshkoro, Wisconsin
Current Conditions -  °F | °C
As of 4:56 PM on Saturday 20 Dec 2014 (Local Time) from KY50 Reporting Station
Overcast Overcast  
Wind Chill: 29°   Ceiling: 3800
Heat Index: 29°   Visibility: 9mi
Dew Point: 27°   Wind: 0mph
Humidity: 92%   Direction: NA
Pressure: 30.21"   Gusts: NA
Location:  43.97°N, 89.22°W
Report Text: KY50 202256Z AUTO 00000KT 9SM FEW022 OVC038 M02/M03 A3021 RMK AO2 TSNO T10161027 SLP238
Loading
Personal Weather Stations






























Interactive Weather Map New forecast layout! Learn more

10-Day Weather Forecast

Advertisements
Track Severe Weather on mobile